Time;durP1;ratioP1;P1;durP2;ratioP2;P2;SDS_P1;SDS_P2;PMS_P1;PMS_P2;Temp;Humidity;BMP_temperature;BMP_pressure;BME280_temperature;BME280_humidity;BME280_pressure;Samples;Min_cycle;Max_cycle;Signal;HPM_P1;HPM_P2
2020/12/14 00:01:59;;;;;;;4.97;3.97;;;6.30;99.90;;;;;;5055131;28;20522;-64
2020/12/14 00:04:25;;;;;;;7.77;3.67;;;6.30;99.90;;;;;;5055099;28;20207;-64
2020/12/14 00:06:51;;;;;;;8.90;3.60;;;6.30;99.90;;;;;;5054869;28;20242;-64
2020/12/14 00:09:17;;;;;;;5.20;3.30;;;6.40;99.90;;;;;;5055088;28;20152;-64
2020/12/14 00:11:42;;;;;;;9.13;3.50;;;6.40;99.90;;;;;;5053638;28;20175;-64
2020/12/14 00:14:08;;;;;;;5.10;3.10;;;6.50;99.90;;;;;;5055116;28;20426;-64
2020/12/14 00:16:34;;;;;;;6.30;3.80;;;6.50;99.90;;;;;;5055332;28;20187;-64
2020/12/14 00:19:00;;;;;;;5.87;3.03;;;6.50;99.90;;;;;;5053465;28;20179;-64
2020/12/14 00:21:25;;;;;;;6.40;3.43;;;6.50;99.90;;;;;;5066602;28;20514;-64
2020/12/14 00:23:51;;;;;;;5.50;3.13;;;6.60;99.90;;;;;;5074675;28;20191;-64
2020/12/14 00:26:18;;;;;;;7.83;4.20;;;6.60;99.90;;;;;;5074485;28;20232;-64
2020/12/14 00:28:47;;;;;;;4.70;2.73;;;6.60;99.90;;;;;;5074768;28;20524;-64
2020/12/14 00:31:15;;;;;;;6.10;2.90;;;6.60;99.90;;;;;;5074499;28;20909;-64
2020/12/14 00:33:40;;;;;;;4.10;2.87;;;6.60;99.90;;;;;;5065515;28;20433;-64
2020/12/14 00:36:08;;;;;;;5.07;3.13;;;6.60;99.90;;;;;;5054296;28;20771;-64
2020/12/14 00:38:33;;;;;;;4.93;3.07;;;6.70;99.90;;;;;;5054344;28;20164;-65
2020/12/14 00:40:59;;;;;;;5.53;3.30;;;6.70;99.90;;;;;;5054643;28;20868;-64
2020/12/14 00:43:24;;;;;;;5.63;2.67;;;6.70;99.90;;;;;;5054316;28;20164;-65
2020/12/14 00:45:50;;;;;;;5.87;3.20;;;6.70;99.90;;;;;;5054309;28;20172;-64
2020/12/14 00:48:15;;;;;;;3.83;2.83;;;6.80;99.90;;;;;;5053490;28;20161;-64
2020/12/14 00:50:41;;;;;;;3.63;2.90;;;6.80;99.90;;;;;;5056543;28;20165;-64
2020/12/14 00:53:06;;;;;;;8.30;3.10;;;6.80;99.90;;;;;;5054382;28;20161;-65
2020/12/14 00:55:32;;;;;;;5.57;2.90;;;6.80;99.90;;;;;;5054463;28;20255;-64
2020/12/14 00:57:57;;;;;;;4.23;3.10;;;6.80;99.90;;;;;;5054058;28;20160;-64
2020/12/14 01:00:23;;;;;;;3.60;2.80;;;6.80;99.90;;;;;;5053973;28;20164;-64
2020/12/14 01:02:48;;;;;;;7.93;3.00;;;6.80;99.90;;;;;;5053929;28;20534;-64
2020/12/14 01:05:14;;;;;;;4.87;2.83;;;6.80;99.90;;;;;;5054002;28;20184;-65
2020/12/14 01:07:39;;;;;;;9.13;3.13;;;6.80;99.90;;;;;;5054399;28;20172;-65
2020/12/14 01:10:05;;;;;;;3.70;2.30;;;6.90;99.90;;;;;;5054075;28;20181;-64
2020/12/14 01:12:30;;;;;;;5.70;2.70;;;6.80;99.90;;;;;;5053769;28;20156;-64
2020/12/14 01:14:56;;;;;;;8.20;2.80;;;6.80;99.90;;;;;;5053735;28;20160;-64
2020/12/14 01:17:21;;;;;;;6.70;3.00;;;6.80;99.90;;;;;;5053489;28;20163;-64
2020/12/14 01:19:47;;;;;;;4.50;2.93;;;6.70;99.90;;;;;;5053879;28;20199;-65
2020/12/14 01:22:12;;;;;;;3.37;2.73;;;6.70;99.90;;;;;;5071557;28;20617;-65
2020/12/14 01:24:38;;;;;;;5.53;2.97;;;6.70;99.90;;;;;;5064639;28;20222;-64
2020/12/14 01:27:03;;;;;;;7.40;3.80;;;6.60;99.90;;;;;;5053428;28;20164;-64
2020/12/14 01:29:29;;;;;;;4.97;3.13;;;6.60;99.90;;;;;;5053629;28;20598;-64
2020/12/14 01:31:54;;;;;;;6.03;2.70;;;6.60;99.90;;;;;;5053359;28;20167;-64
2020/12/14 01:34:20;;;;;;;6.40;2.73;;;6.60;99.90;;;;;;5053314;28;20160;-64
2020/12/14 01:36:48;;;;;;;4.30;2.40;;;6.60;99.90;;;;;;5053343;28;20210;-64
2020/12/14 01:39:15;;;;;;;5.83;2.97;;;6.60;99.90;;;;;;5053394;28;20159;-64
2020/12/14 01:41:41;;;;;;;3.07;2.20;;;6.60;99.90;;;;;;5052679;28;20410;-64
2020/12/14 01:44:06;;;;;;;4.63;3.00;;;6.60;99.90;;;;;;5053095;28;20448;-64
2020/12/14 01:46:32;;;;;;;3.67;2.50;;;6.60;99.90;;;;;;5053001;28;20498;-64
2020/12/14 01:49:00;;;;;;;3.80;2.97;;;6.60;99.90;;;;;;5053367;28;20568;-64
2020/12/14 01:51:28;;;;;;;6.63;2.90;;;6.60;99.90;;;;;;5056491;28;20179;-64
2020/12/14 01:53:57;;;;;;;3.13;2.30;;;6.50;99.90;;;;;;5073141;28;20389;-64
2020/12/14 01:56:23;;;;;;;5.60;2.80;;;6.50;99.90;;;;;;5055719;28;20394;-64
2020/12/14 01:58:49;;;;;;;7.77;2.57;;;6.50;99.90;;;;;;5063025;28;20425;-64
2020/12/14 02:01:15;;;;;;;4.33;2.40;;;6.50;99.90;;;;;;5052612;28;20406;-64
2020/12/14 02:03:40;;;;;;;4.80;2.70;;;6.50;99.90;;;;;;5052868;28;20399;-64
2020/12/14 02:06:06;;;;;;;8.57;2.63;;;6.50;99.90;;;;;;5053178;28;20712;-64
2020/12/14 02:08:32;;;;;;;3.00;2.20;;;6.50;99.90;;;;;;5053164;28;20231;-64
2020/12/14 02:10:58;;;;;;;2.23;1.80;;;6.40;99.90;;;;;;5052835;28;20444;-64
2020/12/14 02:13:26;;;;;;;4.23;2.40;;;6.50;99.90;;;;;;5052792;28;20175;-65
2020/12/14 02:15:51;;;;;;;6.63;2.27;;;6.40;99.90;;;;;;5053408;28;20168;-64
2020/12/14 02:18:17;;;;;;;3.00;2.00;;;6.50;99.90;;;;;;5052916;28;20417;-65
2020/12/14 02:20:42;;;;;;;7.07;2.40;;;6.40;99.90;;;;;;5052702;28;20192;-64
2020/12/14 02:23:08;;;;;;;2.60;2.00;;;6.50;99.90;;;;;;5071278;28;20183;-64
2020/12/14 02:25:33;;;;;;;5.93;2.70;;;6.50;99.90;;;;;;5072476;28;20578;-64
2020/12/14 02:27:59;;;;;;;3.00;2.27;;;6.50;99.90;;;;;;5072568;28;20187;-64
2020/12/14 02:30:24;;;;;;;5.20;2.23;;;6.50;99.90;;;;;;5062554;28;20547;-64
2020/12/14 02:32:50;;;;;;;5.53;2.40;;;6.50;99.90;;;;;;5062435;28;20179;-64
2020/12/14 02:35:15;;;;;;;4.83;2.63;;;6.50;99.90;;;;;;5071395;28;20522;-64
2020/12/14 02:37:41;;;;;;;4.40;1.90;;;6.50;99.90;;;;;;5072598;28;20158;-64
2020/12/14 02:40:06;;;;;;;4.37;2.10;;;6.50;99.90;;;;;;5072495;28;20160;-64
2020/12/14 02:42:32;;;;;;;5.33;2.10;;;6.60;99.90;;;;;;5072697;28;20159;-64
2020/12/14 02:44:57;;;;;;;3.53;2.27;;;6.60;99.90;;;;;;5072537;28;20711;-64
2020/12/14 02:47:23;;;;;;;5.20;2.43;;;6.60;99.90;;;;;;5072615;28;20250;-64
2020/12/14 02:49:49;;;;;;;3.23;2.03;;;6.50;99.90;;;;;;5071764;28;20175;-64
2020/12/14 02:52:14;;;;;;;2.97;2.50;;;6.50;99.90;;;;;;5060993;28;20639;-64
2020/12/14 02:54:42;;;;;;;2.47;2.27;;;6.50;99.90;;;;;;5052315;28;20183;-64
2020/12/14 02:57:08;;;;;;;6.40;2.10;;;6.50;99.90;;;;;;5052518;28;20517;-64
2020/12/14 02:59:33;;;;;;;4.50;2.07;;;6.50;99.90;;;;;;5051112;28;20421;-64
2020/12/14 03:01:59;;;;;;;6.40;2.37;;;6.50;99.90;;;;;;5052221;28;20391;-64
2020/12/14 03:04:25;;;;;;;2.40;1.73;;;6.60;99.90;;;;;;5052464;28;20157;-64
2020/12/14 03:06:51;;;;;;;4.83;2.33;;;6.60;99.90;;;;;;5052776;28;20235;-64
2020/12/14 03:09:18;;;;;;;4.23;2.23;;;6.60;99.90;;;;;;5052501;28;20791;-65
2020/12/14 03:11:46;;;;;;;4.80;2.00;;;6.60;99.90;;;;;;5051429;28;20149;-64
2020/12/14 03:14:12;;;;;;;3.77;2.07;;;6.60;99.90;;;;;;5055959;28;20426;-64
2020/12/14 03:16:40;;;;;;;3.50;2.03;;;6.70;99.90;;;;;;5055945;28;20379;-64
2020/12/14 03:19:05;;;;;;;2.47;2.20;;;6.70;99.90;;;;;;5057054;28;20491;-64
2020/12/14 03:21:31;;;;;;;3.93;2.43;;;6.70;99.90;;;;;;5055799;28;20422;-64
2020/12/14 03:23:56;;;;;;;6.17;2.93;;;6.80;99.90;;;;;;5067594;28;20218;-64
2020/12/14 03:26:22;;;;;;;3.77;2.57;;;6.90;99.90;;;;;;5075549;28;20587;-64
2020/12/14 03:28:47;;;;;;;2.70;1.77;;;6.90;99.90;;;;;;5075736;28;20258;-64
2020/12/14 03:31:13;;;;;;;3.40;1.97;;;6.90;99.90;;;;;;5075694;28;20170;-64
2020/12/14 03:33:38;;;;;;;2.30;2.03;;;6.90;99.90;;;;;;5075860;28;20160;-64
2020/12/14 03:36:04;;;;;;;4.00;2.53;;;6.90;99.90;;;;;;5076154;28;20164;-64
2020/12/14 03:38:30;;;;;;;7.43;2.57;;;7.00;99.90;;;;;;5075768;28;20300;-64
2020/12/14 03:40:55;;;;;;;4.83;2.53;;;7.00;99.90;;;;;;5074927;28;20258;-64
2020/12/14 03:43:21;;;;;;;5.00;2.23;;;7.10;99.90;;;;;;5075721;28;20164;-64
2020/12/14 03:45:48;;;;;;;4.57;1.97;;;7.10;99.90;;;;;;5074161;28;20665;-65
2020/12/14 03:48:15;;;;;;;3.70;2.23;;;7.10;99.90;;;;;;5066574;28;20620;-64
2020/12/14 03:50:43;;;;;;;6.10;2.80;;;7.20;99.90;;;;;;5055408;28;20394;-64
2020/12/14 03:53:09;;;;;;;3.00;2.20;;;7.20;99.90;;;;;;5055599;28;20687;-64
2020/12/14 03:55:34;;;;;;;3.13;2.13;;;7.20;99.90;;;;;;5055220;28;20392;-64
2020/12/14 03:58:00;;;;;;;4.40;2.70;;;7.20;99.90;;;;;;5054516;28;20406;-64
2020/12/14 04:00:25;;;;;;;5.83;2.60;;;7.20;99.90;;;;;;5055087;28;20253;-64
2020/12/14 04:02:51;;;;;;;3.30;2.40;;;7.20;99.90;;;;;;5055335;28;20160;-64
2020/12/14 04:05:16;;;;;;;2.83;1.73;;;7.30;99.90;;;;;;5054946;28;20660;-64
2020/12/14 04:07:42;;;;;;;6.90;2.80;;;7.30;99.90;;;;;;5055112;28;20251;-64
2020/12/14 04:10:07;;;;;;;2.20;2.00;;;7.30;99.90;;;;;;5054905;28;20243;-64
2020/12/14 04:12:33;;;;;;;5.33;2.40;;;7.30;99.90;;;;;;5054933;28;20234;-65
2020/12/14 04:14:58;;;;;;;5.13;2.23;;;7.30;99.90;;;;;;5055725;28;20263;-64
2020/12/14 04:17:24;;;;;;;7.67;2.27;;;7.30;99.90;;;;;;5055036;28;20183;-64
2020/12/14 04:19:50;;;;;;;4.53;2.40;;;7.30;99.90;;;;;;5074897;28;20188;-64
2020/12/14 04:22:15;;;;;;;3.97;2.10;;;7.40;99.90;;;;;;5073601;28;20609;-64
2020/12/14 04:24:41;;;;;;;3.90;1.80;;;7.40;99.90;;;;;;5074490;28;20163;-64
2020/12/14 04:27:07;;;;;;;4.50;2.70;;;7.40;99.90;;;;;;5074674;28;20148;-64
2020/12/14 04:29:32;;;;;;;2.80;1.90;;;7.30;99.90;;;;;;5074838;28;20498;-65
2020/12/14 04:31:58;;;;;;;3.83;2.20;;;7.30;99.90;;;;;;5063544;28;20262;-64
2020/12/14 04:34:23;;;;;;;4.57;2.60;;;7.40;99.90;;;;;;5054529;28;20202;-64
2020/12/14 04:36:49;;;;;;;6.00;2.60;;;7.40;99.90;;;;;;5054616;28;20160;-64
2020/12/14 04:39:16;;;;;;;7.67;3.23;;;7.30;99.90;;;;;;5053259;28;20165;-64
2020/12/14 04:41:41;;;;;;;3.17;2.30;;;7.40;99.90;;;;;;5054390;28;20876;-64
2020/12/14 04:44:08;;;;;;;5.43;1.90;;;7.40;99.90;;;;;;5054272;28;20421;-65
2020/12/14 04:46:34;;;;;;;2.53;1.70;;;7.40;99.90;;;;;;5059923;28;20198;-64
2020/12/14 04:49:05;;;;;;;5.50;2.30;;;7.40;99.90;;;;;;5061425;28;20426;-64
2020/12/14 04:51:33;;;;;;;4.07;1.90;;;7.40;99.90;;;;;;5054332;28;20483;-64
2020/12/14 04:54:00;;;;;;;3.77;2.50;;;7.40;99.90;;;;;;5052817;28;20383;-64
2020/12/14 04:56:27;;;;;;;4.37;2.70;;;7.40;99.90;;;;;;5054160;28;20422;-64
2020/12/14 04:58:55;;;;;;;6.73;2.60;;;7.30;99.90;;;;;;5052784;28;20478;-64
2020/12/14 05:01:21;;;;;;;5.40;2.23;;;7.30;99.90;;;;;;5053117;28;20812;-64
2020/12/14 05:03:46;;;;;;;5.57;2.27;;;7.30;99.90;;;;;;5053954;28;20407;-64
2020/12/14 05:06:12;;;;;;;3.90;2.10;;;7.30;99.90;;;;;;5054665;28;20438;-65
2020/12/14 05:08:37;;;;;;;5.70;2.77;;;7.30;99.90;;;;;;5053886;28;20157;-64
2020/12/14 05:11:03;;;;;;;4.17;2.80;;;7.30;99.90;;;;;;5053802;28;20235;-65
2020/12/14 05:13:28;;;;;;;3.90;2.27;;;7.20;99.90;;;;;;5053949;28;20203;-65
2020/12/14 05:15:55;;;;;;;6.20;2.37;;;7.20;99.90;;;;;;5053784;28;20168;-64
2020/12/14 05:18:23;;;;;;;5.03;2.20;;;7.30;99.90;;;;;;5072439;28;20167;-65
2020/12/14 05:21:05;;;;;;;3.50;2.23;;;7.30;99.90;;;;;;5072202;28;20487;-65
2020/12/14 05:23:32;;;;;;;4.37;2.27;;;7.30;99.90;;;;;;5069471;28;20417;-64
2020/12/14 05:26:07;;;;;;;2.50;1.93;;;7.30;99.90;;;;;;5072322;28;20460;-64
2020/12/14 05:28:34;;;;;;;3.33;1.80;;;7.30;99.90;;;;;;5074079;28;20393;-64
2020/12/14 05:31:00;;;;;;;7.60;2.13;;;7.30;99.90;;;;;;5073561;28;20422;-64
2020/12/14 05:33:28;;;;;;;3.60;2.03;;;7.30;99.90;;;;;;5072456;28;20397;-64
2020/12/14 05:35:54;;;;;;;3.80;2.00;;;7.30;99.90;;;;;;5071559;28;20159;-64
2020/12/14 05:38:25;;;;;;;4.83;2.90;;;7.30;99.90;;;;;;5072075;28;20497;-65
2020/12/14 05:40:53;;;;;;;4.37;2.30;;;7.40;99.90;;;;;;5072805;28;20906;-65
2020/12/14 05:43:20;;;;;;;4.53;2.40;;;7.40;99.90;;;;;;5072098;28;20446;-64
2020/12/14 05:45:49;;;;;;;2.47;2.20;;;7.40;99.90;;;;;;5071344;28;20460;-64
2020/12/14 05:48:32;;;;;;;4.77;2.57;;;7.40;99.90;;;;;;5053214;28;20387;-65
2020/12/14 05:51:00;;;;;;;5.00;2.30;;;7.40;99.90;;;;;;5052039;28;20398;-65
2020/12/14 05:53:36;;;;;;;5.03;2.50;;;7.40;99.90;;;;;;5052261;28;20387;-65
2020/12/14 05:56:03;;;;;;;2.40;2.20;;;7.50;99.90;;;;;;5056550;28;20413;-65
2020/12/14 05:58:31;;;;;;;1.90;1.80;;;7.50;99.90;;;;;;5073204;28;20401;-64
2020/12/14 06:00:57;;;;;;;3.80;2.63;;;7.40;99.90;;;;;;5073099;28;20401;-64
2020/12/14 06:03:24;;;;;;;5.87;2.60;;;7.40;99.90;;;;;;5071842;28;20444;-64
2020/12/14 06:05:58;;;;;;;6.40;2.73;;;7.40;99.90;;;;;;5072932;28;20441;-65
2020/12/14 06:11:13;;;;;;;3.50;2.30;;;7.40;99.90;;;;;;5111501;27;20564;-64
2020/12/14 06:13:56;;;;;;;6.83;3.47;;;7.40;99.90;;;;;;5091732;28;20416;-64
2020/12/14 06:16:25;;;;;;;5.03;2.53;;;7.30;99.90;;;;;;5092315;28;20461;-65
2020/12/14 06:18:51;;;;;;;3.53;2.27;;;7.30;99.90;;;;;;5110832;28;20389;-65
2020/12/14 06:24:18;;;;;;;4.37;2.47;;;7.30;99.90;;;;;;5111415;27;20513;-63
2020/12/14 06:26:44;;;;;;;4.23;2.07;;;7.30;99.90;;;;;;5111447;28;20452;-66
2020/12/14 06:29:18;;;;;;;3.50;2.00;;;7.20;99.90;;;;;;5110813;28;20376;-66
2020/12/14 06:31:44;;;;;;;4.63;2.07;;;7.20;99.90;;;;;;5092725;28;20834;-66
2020/12/14 06:37:07;;;;;;;3.60;2.30;;;7.10;99.90;;;;;;5110346;27;20525;-64
2020/12/14 06:39:37;;;;;;;3.37;2.30;;;7.20;99.90;;;;;;5109955;28;20903;-64
2020/12/14 06:47:22;;;;;;;6.23;2.77;;;7.20;99.90;;;;;;5094030;27;20568;-65
2020/12/14 06:49:48;;;;;;;7.37;2.80;;;7.20;99.90;;;;;;5090394;28;20389;-65
2020/12/14 06:52:34;;;;;;;4.83;2.20;;;7.30;99.90;;;;;;5090517;28;20166;-65
2020/12/14 06:54:59;;;;;;;3.30;2.20;;;7.30;99.90;;;;;;5090505;28;20163;-65
2020/12/14 06:57:37;;;;;;;4.73;2.80;;;7.40;99.90;;;;;;5089783;28;20975;-65
2020/12/14 07:00:04;;;;;;;4.53;2.70;;;7.40;99.90;;;;;;5085022;28;20159;-65
2020/12/14 07:02:39;;;;;;;3.70;2.50;;;7.50;99.90;;;;;;5090578;28;20381;-65
2020/12/14 07:05:32;;;;;;;4.57;2.50;;;7.50;99.90;;;;;;5090059;28;20415;-65
2020/12/14 07:07:58;;;;;;;5.93;2.53;;;7.50;99.90;;;;;;5089382;28;20431;-65
2020/12/14 07:10:25;;;;;;;2.10;1.83;;;7.60;99.90;;;;;;5090042;28;20386;-65
2020/12/14 07:12:50;;;;;;;4.07;2.20;;;7.60;99.90;;;;;;5089610;28;20830;-65
2020/12/14 07:15:26;;;;;;;5.07;2.20;;;7.60;99.90;;;;;;5089475;28;20499;-65
2020/12/14 07:18:14;;;;;;;4.50;2.40;;;7.60;99.90;;;;;;5069817;28;20167;-65
2020/12/14 07:23:35;;;;;;;4.23;2.20;;;7.70;99.90;;;;;;5110876;27;20517;-65
2020/12/14 07:26:02;;;;;;;6.23;2.33;;;7.70;99.90;;;;;;5110277;28;20439;-65
2020/12/14 07:28:49;;;;;;;3.57;2.80;;;7.70;99.90;;;;;;5110919;28;20373;-65
2020/12/14 07:31:17;;;;;;;3.00;2.20;;;7.70;99.90;;;;;;5105539;28;20804;-65
2020/12/14 07:36:28;;;;;;;3.87;2.83;;;7.60;99.90;;;;;;5111466;27;20554;-66
2020/12/14 07:38:56;;;;;;;4.60;2.70;;;7.70;99.90;;;;;;5099678;28;20405;-66
2020/12/14 07:41:23;;;;;;;5.00;2.70;;;7.70;99.90;;;;;;5094119;28;20392;-65
2020/12/14 07:43:53;;;;;;;4.03;2.30;;;7.70;99.90;;;;;;5108754;28;20409;-65
2020/12/14 07:46:22;;;;;;;2.67;2.10;;;7.80;99.90;;;;;;5094554;28;20469;-66
2020/12/14 07:51:29;;;;;;;3.30;2.80;;;7.90;99.90;;;;;;5088399;27;20556;-64
2020/12/14 07:54:14;;;;;;;2.83;2.37;;;7.90;99.90;;;;;;5069430;28;20460;-65
2020/12/14 07:56:41;;;;;;;3.70;2.30;;;7.90;99.90;;;;;;5077015;28;20421;-64
2020/12/14 07:59:17;;;;;;;3.23;2.83;;;7.90;99.90;;;;;;5070216;28;20716;-65
2020/12/14 08:01:43;;;;;;;4.30;2.90;;;7.90;99.90;;;;;;5078157;28;20785;-65
2020/12/14 08:04:12;;;;;;;3.57;2.60;;;7.80;99.90;;;;;;5076890;28;20405;-65
2020/12/14 08:06:40;;;;;;;3.53;2.53;;;7.80;99.90;;;;;;5077473;28;20788;-65
2020/12/14 08:09:06;;;;;;;6.27;3.20;;;7.70;99.90;;;;;;5084661;28;20434;-65
2020/12/14 08:11:33;;;;;;;6.00;3.47;;;7.70;99.90;;;;;;5089698;28;20393;-65
2020/12/14 08:13:59;;;;;;;5.33;3.33;;;7.70;99.90;;;;;;5072680;28;20816;-65
2020/12/14 08:16:25;;;;;;;4.37;3.00;;;7.70;99.90;;;;;;5067879;28;20406;-65
2020/12/14 08:18:56;;;;;;;3.30;2.87;;;7.60;99.90;;;;;;5067943;28;20156;-65
2020/12/14 08:21:23;;;;;;;4.80;3.07;;;7.60;99.90;;;;;;5064738;28;20207;-65
2020/12/14 08:23:50;;;;;;;5.10;3.53;;;7.60;99.90;;;;;;5066115;28;20416;-64
2020/12/14 08:26:23;;;;;;;6.90;3.50;;;7.50;99.90;;;;;;5066433;28;20441;-65
2020/12/14 08:28:49;;;;;;;4.43;3.37;;;7.50;99.90;;;;;;5067600;28;20891;-65
2020/12/14 08:31:15;;;;;;;5.10;3.57;;;7.50;99.90;;;;;;5067420;28;20445;-65
2020/12/14 08:33:49;;;;;;;3.47;3.17;;;7.50;99.90;;;;;;5058722;28;20414;-65
2020/12/14 08:36:17;;;;;;;3.83;3.03;;;7.50;99.90;;;;;;5051462;28;20163;-64
2020/12/14 08:38:44;;;;;;;5.63;3.13;;;7.50;99.90;;;;;;5066170;28;20834;-65
2020/12/14 08:41:10;;;;;;;6.40;4.43;;;7.50;99.90;;;;;;5051273;28;20433;-65
2020/12/14 08:43:37;;;;;;;5.00;3.20;;;7.60;99.90;;;;;;5080702;28;20444;-65
2020/12/14 08:51:26;;;;;;;4.40;3.23;;;7.60;99.90;;;;;;5107643;27;20509;-64
2020/12/14 08:53:54;;;;;;;4.10;3.03;;;7.70;99.90;;;;;;5107906;28;20442;-64
2020/12/14 08:56:22;;;;;;;3.93;3.20;;;7.70;99.90;;;;;;5105280;28;20408;-64
2020/12/14 09:01:28;;;;;;;4.83;3.10;;;7.70;99.90;;;;;;5109891;27;20506;-66
2020/12/14 09:03:57;;;;;;;6.63;4.10;;;7.80;99.90;;;;;;5071697;28;20515;-66
2020/12/14 09:06:27;;;;;;;3.50;3.00;;;7.80;99.90;;;;;;5089285;28;20416;-66
2020/12/14 09:09:10;;;;;;;4.60;3.43;;;7.80;99.90;;;;;;5088098;28;20413;-66
2020/12/14 09:11:50;;;;;;;3.17;2.87;;;7.80;99.90;;;;;;5083157;28;20475;-66
2020/12/14 09:14:24;;;;;;;2.90;2.60;;;7.80;99.90;;;;;;5087807;28;20409;-66
2020/12/14 09:16:52;;;;;;;3.13;2.83;;;7.90;99.90;;;;;;5089798;28;20411;-66
2020/12/14 09:19:23;;;;;;;4.07;2.77;;;7.90;99.90;;;;;;5088602;28;20465;-66
2020/12/14 09:21:49;;;;;;;4.53;2.80;;;8.00;99.90;;;;;;5067221;28;20422;-66
2020/12/14 09:24:21;;;;;;;4.30;3.40;;;8.10;99.90;;;;;;5047779;28;20468;-66
2020/12/14 09:26:49;;;;;;;4.53;3.20;;;8.10;99.90;;;;;;5047728;28;20414;-66
2020/12/14 09:29:15;;;;;;;7.33;2.90;;;8.10;99.90;;;;;;5047905;28;20403;-66
2020/12/14 09:31:57;;;;;;;5.47;3.20;;;8.10;99.90;;;;;;5047916;28;20397;-66
2020/12/14 09:34:22;;;;;;;5.83;3.60;;;8.10;99.90;;;;;;5049208;28;20801;-66
2020/12/14 09:36:52;;;;;;;4.87;3.30;;;8.10;99.90;;;;;;5067503;28;20926;-66
2020/12/14 09:39:18;;;;;;;3.60;3.00;;;8.20;99.90;;;;;;5051716;28;20401;-66
2020/12/14 09:41:43;;;;;;;4.00;3.13;;;8.20;99.90;;;;;;5084324;28;20422;-66
2020/12/14 09:44:09;;;;;;;4.97;3.27;;;8.20;99.90;;;;;;5069795;28;20382;-66
2020/12/14 09:46:35;;;;;;;5.33;3.10;;;8.20;99.90;;;;;;5068709;28;20176;-66
2020/12/14 09:49:01;;;;;;;4.33;3.40;;;8.30;99.90;;;;;;5069019;28;20207;-65
2020/12/14 09:51:27;;;;;;;4.17;2.80;;;8.30;99.90;;;;;;5068647;28;20515;-66
2020/12/14 09:53:54;;;;;;;4.50;3.00;;;8.30;99.90;;;;;;5059515;28;20578;-66
2020/12/14 09:56:20;;;;;;;4.60;3.20;;;8.30;99.90;;;;;;5054388;28;20546;-66
2020/12/14 09:58:46;;;;;;;4.07;3.00;;;8.40;99.90;;;;;;5064332;28;20440;-65
2020/12/14 10:01:12;;;;;;;5.00;3.37;;;8.40;99.90;;;;;;5088991;28;20199;-65
2020/12/14 10:03:37;;;;;;;3.70;2.60;;;8.40;99.90;;;;;;5080040;28;20479;-65
2020/12/14 10:06:03;;;;;;;4.80;3.10;;;8.40;99.90;;;;;;5068763;28;20160;-65
2020/12/14 10:08:29;;;;;;;5.93;3.10;;;8.40;99.90;;;;;;5068929;28;20166;-65
2020/12/14 10:10:56;;;;;;;4.50;3.30;;;8.50;99.90;;;;;;5065538;28;20269;-65
2020/12/14 10:13:25;;;;;;;7.50;4.37;;;8.50;99.90;;;;;;5037024;28;20658;-65
2020/12/14 10:15:52;;;;;;;5.80;3.33;;;8.60;99.90;;;;;;5045789;28;20430;-65
2020/12/14 10:18:18;;;;;;;6.10;3.90;;;8.60;99.90;;;;;;5060099;28;20513;-65
2020/12/14 10:20:44;;;;;;;6.27;3.67;;;8.50;99.90;;;;;;5055563;28;20973;-65
2020/12/14 10:23:11;;;;;;;4.23;3.20;;;8.50;99.90;;;;;;5075030;28;20774;-65
2020/12/14 10:25:37;;;;;;;4.00;3.60;;;8.50;99.90;;;;;;5075821;28;20390;-65
2020/12/14 10:28:03;;;;;;;4.20;3.00;;;8.50;99.90;;;;;;5056295;28;20458;-65
2020/12/14 10:30:29;;;;;;;4.70;3.20;;;8.60;99.90;;;;;;5055410;28;20927;-65
2020/12/14 10:32:55;;;;;;;6.33;3.63;;;8.60;99.90;;;;;;5054887;28;20402;-65
2020/12/14 10:35:21;;;;;;;3.60;2.97;;;8.60;99.90;;;;;;5070293;28;20572;-65
2020/12/14 10:37:47;;;;;;;5.50;3.97;;;8.60;99.90;;;;;;5053391;28;20176;-65
2020/12/14 10:40:13;;;;;;;6.57;3.07;;;8.70;99.90;;;;;;5052028;28;20222;-65
2020/12/14 10:42:38;;;;;;;4.47;2.87;;;8.80;99.90;;;;;;5066858;28;20411;-65
2020/12/14 10:45:04;;;;;;;3.70;2.93;;;8.90;99.90;;;;;;5050871;28;20184;-65
2020/12/14 10:47:30;;;;;;;3.97;3.30;;;8.90;99.90;;;;;;5033613;28;20202;-65
2020/12/14 10:49:55;;;;;;;4.10;3.03;;;8.90;99.90;;;;;;5054690;28;20163;-65
2020/12/14 10:52:21;;;;;;;3.87;3.33;;;8.90;99.90;;;;;;5054545;28;20191;-65
2020/12/14 10:54:47;;;;;;;6.20;2.97;;;9.00;99.90;;;;;;5054590;28;20529;-65
2020/12/14 10:57:12;;;;;;;4.27;2.93;;;9.00;99.90;;;;;;5054374;28;20409;-65
2020/12/14 10:59:38;;;;;;;3.97;2.93;;;9.00;99.90;;;;;;5053913;28;20556;-65
2020/12/14 11:02:03;;;;;;;4.60;3.40;;;9.00;99.90;;;;;;5051511;28;20510;-65
2020/12/14 11:04:29;;;;;;;6.87;3.40;;;9.00;99.90;;;;;;5051347;28;20171;-65
2020/12/14 11:06:54;;;;;;;3.77;2.43;;;9.00;99.90;;;;;;5054292;28;20152;-65
2020/12/14 11:09:20;;;;;;;4.50;4.10;;;9.10;99.90;;;;;;5054882;28;20279;-65
2020/12/14 11:11:45;;;;;;;3.40;2.80;;;9.10;99.90;;;;;;5053746;28;20234;-65
2020/12/14 11:14:11;;;;;;;2.90;2.63;;;9.10;99.90;;;;;;5053879;28;20188;-65
2020/12/14 11:16:41;;;;;;;5.40;3.50;;;9.10;99.90;;;;;;5053639;28;20267;-65
2020/12/14 11:19:06;;;;;;;3.20;2.90;;;9.10;99.90;;;;;;5054143;28;20705;-65
2020/12/14 11:21:32;;;;;;;6.43;3.23;;;9.10;99.90;;;;;;5053903;28;20430;-65
2020/12/14 11:23:58;;;;;;;3.30;2.80;;;9.10;99.90;;;;;;5053510;28;20195;-65
2020/12/14 11:26:24;;;;;;;5.70;3.00;;;9.20;99.90;;;;;;5053852;28;20415;-66
2020/12/14 11:28:49;;;;;;;5.27;3.27;;;9.30;99.90;;;;;;5053899;28;20179;-65
2020/12/14 11:31:19;;;;;;;3.47;3.00;;;9.40;99.90;;;;;;5052223;28;20426;-65
2020/12/14 11:33:45;;;;;;;3.83;2.47;;;9.50;99.90;;;;;;5052840;28;20179;-65
2020/12/14 11:36:10;;;;;;;4.30;3.10;;;9.60;99.90;;;;;;5064857;28;20910;-65
2020/12/14 11:38:36;;;;;;;4.80;4.30;;;9.60;99.90;;;;;;5067289;28;20907;-65
2020/12/14 11:41:01;;;;;;;4.33;3.40;;;9.60;99.90;;;;;;5072120;28;20184;-65
2020/12/14 11:43:27;;;;;;;6.00;2.73;;;9.60;99.90;;;;;;5072925;28;20209;-66
2020/12/14 11:45:52;;;;;;;2.57;2.37;;;9.60;99.90;;;;;;5060760;28;20167;-65
2020/12/14 11:48:18;;;;;;;3.93;2.60;;;9.60;99.90;;;;;;5053227;28;20741;-65
2020/12/14 11:50:44;;;;;;;3.70;2.93;;;9.60;99.90;;;;;;5053488;28;20274;-65
2020/12/14 11:53:09;;;;;;;6.30;2.73;;;9.60;99.90;;;;;;5052450;28;20180;-65
2020/12/14 11:55:36;;;;;;;3.53;2.73;;;9.70;99.90;;;;;;5053695;28;20588;-65
2020/12/14 11:58:02;;;;;;;5.03;3.20;;;9.70;99.90;;;;;;5067645;28;20237;-65
2020/12/14 12:00:28;;;;;;;7.50;2.80;;;9.70;99.90;;;;;;5055306;28;20508;-65
2020/12/14 12:02:53;;;;;;;3.23;2.87;;;9.70;99.90;;;;;;5062362;28;20426;-65
2020/12/14 12:05:19;;;;;;;5.40;3.37;;;9.70;99.90;;;;;;5052539;28;20571;-65
2020/12/14 12:07:44;;;;;;;3.10;2.60;;;9.60;99.90;;;;;;5053869;28;20162;-65
2020/12/14 12:10:10;;;;;;;3.43;2.73;;;9.60;99.90;;;;;;5053526;28;20541;-65
2020/12/14 12:12:37;;;;;;;3.27;2.90;;;9.70;99.90;;;;;;5052269;28;20241;-65
2020/12/14 12:15:03;;;;;;;3.00;2.43;;;9.80;99.90;;;;;;5064165;28;20183;-65
2020/12/14 12:17:29;;;;;;;3.40;2.40;;;9.80;99.90;;;;;;5049326;28;20959;-65
2020/12/14 12:19:54;;;;;;;4.80;3.17;;;9.80;99.90;;;;;;5056182;28;20457;-65
2020/12/14 12:22:20;;;;;;;5.63;5.03;;;9.90;99.90;;;;;;5057917;28;20568;-65
2020/12/14 12:24:46;;;;;;;3.30;2.37;;;9.90;99.90;;;;;;5052606;28;20156;-65
2020/12/14 12:27:11;;;;;;;3.87;3.00;;;9.90;99.90;;;;;;5052912;28;20644;-65
2020/12/14 12:29:37;;;;;;;4.27;2.93;;;10.00;99.90;;;;;;5053648;28;20409;-65
2020/12/14 12:32:02;;;;;;;6.37;2.67;;;10.00;99.90;;;;;;5052810;28;20168;-66
2020/12/14 12:34:28;;;;;;;4.43;2.67;;;10.00;99.90;;;;;;5052929;28;20234;-65
2020/12/14 12:36:55;;;;;;;3.70;3.00;;;10.00;99.90;;;;;;5053024;28;20523;-65
2020/12/14 12:39:21;;;;;;;4.93;2.90;;;10.10;99.90;;;;;;5042093;28;20241;-65
2020/12/14 12:41:49;;;;;;;3.97;2.67;;;10.10;99.90;;;;;;5056724;28;20422;-65
2020/12/14 12:44:16;;;;;;;5.53;3.33;;;10.10;99.90;;;;;;5051995;28;20613;-65
2020/12/14 12:46:42;;;;;;;2.90;2.50;;;10.10;99.90;;;;;;5051809;28;20430;-65
2020/12/14 12:49:08;;;;;;;5.20;2.43;;;10.10;99.90;;;;;;5052733;28;20982;-65
2020/12/14 12:51:34;;;;;;;3.33;3.03;;;10.10;99.90;;;;;;5039396;28;20496;-65
2020/12/14 12:54:00;;;;;;;3.77;3.40;;;10.10;99.90;;;;;;5033201;28;20857;-65
2020/12/14 12:56:26;;;;;;;5.30;2.80;;;10.10;99.90;;;;;;5052656;28;20566;-64
2020/12/14 12:58:52;;;;;;;2.70;2.50;;;10.00;99.90;;;;;;5052522;28;20423;-64
2020/12/14 13:01:18;;;;;;;4.83;3.17;;;10.00;99.90;;;;;;5034773;28;20505;-64
2020/12/14 13:03:43;;;;;;;4.83;2.60;;;10.00;99.90;;;;;;5043932;28;20179;-64
2020/12/14 13:06:09;;;;;;;4.27;2.50;;;10.00;99.90;;;;;;5028617;28;20461;-63
2020/12/14 13:08:35;;;;;;;5.20;2.23;;;10.00;99.90;;;;;;5052629;28;20164;-64
2020/12/14 13:11:00;;;;;;;3.80;2.30;;;10.00;99.90;;;;;;5067742;28;20175;-64
2020/12/14 13:13:26;;;;;;;2.70;2.30;;;10.00;99.90;;;;;;5052287;28;20164;-66
2020/12/14 13:15:52;;;;;;;4.90;2.40;;;10.00;99.90;;;;;;5041306;28;20258;-64
2020/12/14 13:18:18;;;;;;;5.40;3.00;;;10.00;99.90;;;;;;5046844;28;20188;-64
2020/12/14 13:20:44;;;;;;;3.80;2.63;;;9.90;99.90;;;;;;5048394;28;20519;-64
2020/12/14 13:23:10;;;;;;;5.53;4.13;;;9.90;99.90;;;;;;5050861;28;20211;-64
2020/12/14 13:25:36;;;;;;;5.27;3.27;;;9.90;99.90;;;;;;5052087;28;20426;-64